CheckWX is a tool to help pilots better visualize weather data.  It is not intended as a substitute for an official pre-flight weather briefing.

11:31:44 UTC

KEOK METAR
Keokuk Municipal Airport
Keokuk, Iowa, USA
Current

17 mins ago

KEOK 041115Z AUTO 35013G19KT 10SM OVC007 M01/M02 A3020 RMK AO2
Observed
Apr-4 @ 11:15 UTC
Wind
  • 350° at 13 KTS
  • Gusting to 19 KTS
Visibility
Flight Rules
IFR
Cloud Levels
  • Overcast at 700' AGL
Temperature
-1°C / 30°F
Dewpoint
-2°C / 28°F
Humidity
93%
Altimeter
30.2" Hg
Pressure
1022.72 hPa
Previous

37 mins ago

KEOK 041055Z AUTO 35010G15KT 10SM OVC008 M01/M01 A3019 RMK AO2
Observed
Apr-4 @ 10:55 UTC
Wind
  • 350° at 10 KTS
  • Gusting to 15 KTS
Visibility
Flight Rules
IFR
Cloud Levels
  • Overcast at 800' AGL
Temperature
-1°C / 30°F
Dewpoint
-1°C / 30°F
Humidity
100%
Altimeter
30.19" Hg
Pressure
1022.32 hPa
Previous

57 mins ago

KEOK 041035Z AUTO 34007KT OVC008 M01/M01 A3019 RMK AO2
Observed
Apr-4 @ 10:35 UTC
Wind
  • 340° at 7 KTS
Visibility
Cloud Levels
  • Overcast at 800' AGL
Temperature
-1°C / 30°F
Dewpoint
-1°C / 30°F
Humidity
100%
Altimeter
30.19" Hg
Pressure
1022.32 hPa